Time;durP1;ratioP1;P1;durP2;ratioP2;P2;SDS_P1;SDS_P2;PMS_P1;PMS_P2;Temp;Humidity;BMP_temperature;BMP_pressure;BME280_temperature;BME280_humidity;BME280_pressure;Samples;Min_cycle;Max_cycle;Signal;HPM_P1;HPM_P2
2023/04/04 00:02:02;;;;;;;4.63;2.38;;;2.80;99.90;;;;;;5109202;27;20047;-80
2023/04/04 00:04:28;;;;;;;8.15;2.72;;;1.40;99.90;;;;;;5107837;27;20493;-80
2023/04/04 00:06:54;;;;;;;8.18;2.55;;;1.30;99.90;;;;;;5108777;27;20085;-80
2023/04/04 00:09:20;;;;;;;9.63;2.85;;;1.30;99.90;;;;;;5126807;27;20150;-81
2023/04/04 00:11:46;;;;;;;5.35;2.28;;;1.30;99.90;;;;;;5126785;27;20039;-81
2023/04/04 00:14:12;;;;;;;5.45;1.83;;;1.30;99.90;;;;;;5127030;27;20452;-81
2023/04/04 00:16:38;;;;;;;4.88;1.75;;;1.20;99.90;;;;;;5106783;27;20122;-81
2023/04/04 00:19:04;;;;;;;7.00;2.50;;;1.10;99.90;;;;;;5091980;27;20126;-81
2023/04/04 00:21:29;;;;;;;4.35;2.40;;;1.10;99.90;;;;;;5126068;28;20047;-81
2023/04/04 00:23:58;;;;;;;5.75;2.05;;;1.10;99.90;;;;;;5127802;28;20042;-82
2023/04/04 00:26:27;;;;;;;4.30;1.92;;;1.10;99.90;;;;;;5108033;28;20043;-81
2023/04/04 00:28:53;;;;;;;5.88;1.90;;;2.00;99.90;;;;;;5126465;28;20434;-81
2023/04/04 00:31:21;;;;;;;4.03;2.30;;;1.00;99.90;;;;;;5126683;28;20099;-80
2023/04/04 00:33:47;;;;;;;5.53;2.40;;;2.40;99.90;;;;;;5126160;28;20491;-81
2023/04/04 00:36:13;;;;;;;4.70;2.10;;;0.90;99.90;;;;;;5127487;28;20087;-80
2023/04/04 00:38:38;;;;;;;4.78;2.13;;;0.90;99.90;;;;;;5125662;28;20072;-80
2023/04/04 00:41:05;;;;;;;3.67;1.90;;;0.90;99.90;;;;;;5108478;28;20046;-80
2023/04/04 00:43:31;;;;;;;3.58;2.15;;;0.90;99.90;;;;;;5126381;28;20047;-81
2023/04/04 00:45:57;;;;;;;4.68;2.50;;;0.80;99.90;;;;;;5107607;28;20043;-81
2023/04/04 00:48:23;;;;;;;9.60;3.13;;;0.80;99.90;;;;;;5126826;28;20043;-81
2023/04/04 00:50:49;;;;;;;6.70;2.58;;;0.80;99.90;;;;;;5107274;28;20096;-80
2023/04/04 00:53:16;;;;;;;6.55;2.53;;;1.70;99.90;;;;;;5127291;28;20134;-80
2023/04/04 00:55:42;;;;;;;7.78;2.63;;;0.80;99.90;;;;;;5107634;28;20127;-81
2023/04/04 00:58:09;;;;;;;5.20;2.00;;;0.70;99.90;;;;;;5127132;28;20137;-80
2023/04/04 01:00:36;;;;;;;7.70;2.78;;;0.80;99.90;;;;;;5107472;28;20061;-81
2023/04/04 01:03:02;;;;;;;6.30;2.72;;;0.70;99.90;;;;;;5090391;28;20057;-81
2023/04/04 01:05:30;;;;;;;6.03;2.63;;;0.70;99.90;;;;;;5108501;28;20347;-82
2023/04/04 01:07:56;;;;;;;7.57;2.25;;;0.70;99.90;;;;;;5126203;28;20039;-81
2023/04/04 01:10:22;;;;;;;5.57;2.35;;;0.70;99.90;;;;;;5127318;28;20039;-81
2023/04/04 01:12:47;;;;;;;7.93;3.03;;;0.70;99.90;;;;;;5107250;28;20482;-82
2023/04/04 01:15:13;;;;;;;6.03;2.50;;;0.60;99.90;;;;;;5126807;28;20073;-82
2023/04/04 01:17:43;;;;;;;5.82;2.67;;;0.60;99.90;;;;;;5108118;28;20082;-82
2023/04/04 01:20:20;;;;;;;8.18;2.90;;;0.60;99.90;;;;;;5107876;28;20549;-82
2023/04/04 01:22:52;;;;;;;5.57;2.58;;;0.60;99.90;;;;;;5108485;28;20073;-82
2023/04/04 01:25:24;;;;;;;7.40;3.03;;;0.60;99.90;;;;;;5107288;28;20054;-82
2023/04/04 01:27:50;;;;;;;4.07;2.22;;;0.50;99.90;;;;;;5110123;27;20111;-82
2023/04/04 01:30:17;;;;;;;4.75;2.42;;;0.50;99.90;;;;;;5111278;27;20039;-80
2023/04/04 01:33:09;;;;;;;6.18;2.85;;;0.50;99.90;;;;;;5112206;27;20042;-82
2023/04/04 01:35:43;;;;;;;6.53;2.65;;;0.50;99.90;;;;;;5101180;27;20063;-82
2023/04/04 01:38:26;;;;;;;4.18;2.30;;;0.50;99.90;;;;;;5110668;27;20051;-82
2023/04/04 01:40:56;;;;;;;6.33;4.10;;;0.50;99.90;;;;;;5112211;27;20047;-82
2023/04/04 01:43:22;;;;;;;7.43;2.55;;;0.40;99.90;;;;;;5111450;27;20379;-82
2023/04/04 01:45:49;;;;;;;9.65;3.35;;;0.40;99.90;;;;;;5094222;27;20046;-82
2023/04/04 01:48:15;;;;;;;4.70;2.40;;;0.40;99.90;;;;;;5111642;27;20402;-82
2023/04/04 01:50:41;;;;;;;5.57;3.00;;;0.30;99.90;;;;;;5110552;27;20102;-82
2023/04/04 01:53:07;;;;;;;4.15;2.60;;;0.30;99.90;;;;;;5095115;27;20043;-82
2023/04/04 01:55:33;;;;;;;5.05;2.08;;;0.30;99.90;;;;;;5076361;27;20887;-82
2023/04/04 01:57:59;;;;;;;4.25;2.72;;;0.20;99.90;;;;;;5111567;27;20043;-82
2023/04/04 02:00:25;;;;;;;8.70;2.67;;;0.20;99.90;;;;;;5111099;27;20082;-82
2023/04/04 02:02:51;;;;;;;6.03;2.78;;;0.10;99.90;;;;;;5110599;27;20400;-80
2023/04/04 02:05:16;;;;;;;6.15;2.60;;;0.60;99.90;;;;;;5129561;27;20042;-81
2023/04/04 02:07:47;;;;;;;11.13;3.05;;;0.20;99.90;;;;;;5110477;27;20397;-81
2023/04/04 02:10:12;;;;;;;6.03;2.17;;;0.10;99.90;;;;;;5129553;27;20076;-80
2023/04/04 02:12:38;;;;;;;6.70;2.30;;;0.10;99.90;;;;;;5110062;27;20047;-81
2023/04/04 02:15:05;;;;;;;7.75;3.15;;;0.10;99.90;;;;;;5129831;27;20031;-80
2023/04/04 02:17:30;;;;;;;10.23;3.08;;;0.10;99.90;;;;;;5128754;27;20058;-80
2023/04/04 02:19:56;;;;;;;6.18;2.97;;;0.10;99.90;;;;;;5129171;27;20039;-80
2023/04/04 02:22:22;;;;;;;6.28;2.65;;;0.00;99.90;;;;;;5110582;27;20039;-80
2023/04/04 02:24:48;;;;;;;8.13;2.83;;;0.00;99.90;;;;;;5075833;27;20482;-80
2023/04/04 02:27:14;;;;;;;5.55;2.75;;;0.00;99.90;;;;;;5110444;27;20058;-79
2023/04/04 02:29:39;;;;;;;5.80;2.92;;;0.00;99.90;;;;;;5109457;27;20046;-80
2023/04/04 02:32:05;;;;;;;8.30;3.08;;;0.00;99.90;;;;;;5094283;27;20039;-80
2023/04/04 02:34:31;;;;;;;4.57;2.92;;;0.00;99.90;;;;;;5109654;27;20035;-80
2023/04/04 02:36:57;;;;;;;6.82;2.70;;;0.70;99.90;;;;;;5093541;27;20043;-80
2023/04/04 02:39:23;;;;;;;6.97;2.90;;;0.00;99.90;;;;;;5109416;27;20050;-80
2023/04/04 02:41:48;;;;;;;8.23;3.35;;;-0.10;99.90;;;;;;5109926;27;20081;-80
2023/04/04 02:44:14;;;;;;;6.97;3.33;;;-0.10;99.90;;;;;;5129245;27;20043;-80
2023/04/04 02:46:40;;;;;;;5.45;3.05;;;-0.10;99.90;;;;;;5127968;27;20051;-80
2023/04/04 02:49:06;;;;;;;7.90;2.65;;;-0.10;99.90;;;;;;5128979;27;20501;-80
2023/04/04 02:51:32;;;;;;;8.82;3.42;;;-0.10;99.90;;;;;;5109184;27;20066;-80
2023/04/04 02:53:58;;;;;;;4.25;2.63;;;-0.10;99.90;;;;;;5128663;27;20047;-81
2023/04/04 02:56:24;;;;;;;5.97;2.78;;;0.70;99.90;;;;;;5127899;27;20485;-80
2023/04/04 02:58:49;;;;;;;6.95;2.72;;;-0.10;99.90;;;;;;5109391;27;20091;-80
2023/04/04 03:01:15;;;;;;;7.35;3.00;;;-0.10;99.90;;;;;;5110111;27;20418;-81
2023/04/04 03:03:41;;;;;;;7.70;2.97;;;1.00;99.90;;;;;;5127304;27;20048;-80
2023/04/04 03:06:06;;;;;;;6.70;2.50;;;-0.10;99.90;;;;;;5109675;27;20126;-81
2023/04/04 03:08:34;;;;;;;7.30;3.03;;;-0.10;99.90;;;;;;5127152;27;20043;-81
2023/04/04 03:11:00;;;;;;;4.50;2.60;;;-0.20;99.90;;;;;;5128307;27;20050;-80
2023/04/04 03:13:26;;;;;;;7.22;2.67;;;-0.20;99.90;;;;;;5127828;27;20039;-81
2023/04/04 03:16:02;;;;;;;4.57;2.38;;;-0.20;99.90;;;;;;5127767;27;20055;-81
2023/04/04 03:18:28;;;;;;;6.82;2.63;;;-0.20;99.90;;;;;;5109787;27;20051;-81
2023/04/04 03:20:54;;;;;;;10.48;3.92;;;-0.30;99.90;;;;;;5127480;27;20401;-80
2023/04/04 03:23:20;;;;;;;7.57;2.33;;;-0.30;99.90;;;;;;5128793;27;20118;-80
2023/04/04 03:25:45;;;;;;;5.88;2.92;;;-0.30;99.90;;;;;;5091968;27;20035;-80
2023/04/04 03:28:12;;;;;;;4.03;2.58;;;-0.30;99.90;;;;;;5109276;27;20081;-80
2023/04/04 03:30:38;;;;;;;6.88;2.72;;;-0.30;99.90;;;;;;5127562;27;20039;-80
2023/04/04 03:33:09;;;;;;;2.90;1.95;;;-0.40;99.90;;;;;;5127370;27;20047;-80
2023/04/04 03:35:38;;;;;;;6.28;3.15;;;-0.10;99.90;;;;;;5127891;27;20035;-80
2023/04/04 03:38:05;;;;;;;4.82;2.35;;;-0.40;99.90;;;;;;5126609;27;20506;-81
2023/04/04 03:40:31;;;;;;;5.70;2.70;;;-0.40;99.90;;;;;;5109293;27;20100;-80
2023/04/04 03:42:57;;;;;;;7.65;2.92;;;-0.40;99.90;;;;;;5108641;27;20435;-80
2023/04/04 03:45:23;;;;;;;5.18;2.38;;;-0.40;99.90;;;;;;5127352;27;20039;-80
2023/04/04 03:47:49;;;;;;;6.18;2.80;;;0.80;99.90;;;;;;5127235;27;20043;-79
2023/04/04 03:50:15;;;;;;;5.13;2.22;;;-0.50;99.90;;;;;;5074216;27;20516;-80
2023/04/04 03:52:41;;;;;;;7.82;2.60;;;0.10;99.90;;;;;;5108755;27;20043;-80
2023/04/04 03:55:07;;;;;;;12.27;3.00;;;0.70;99.90;;;;;;5108318;27;20043;-80
2023/04/04 03:57:34;;;;;;;5.60;2.72;;;-0.50;99.90;;;;;;5127816;27;20043;-80
2023/04/04 04:00:01;;;;;;;4.25;2.15;;;-0.50;99.90;;;;;;5126591;27;20046;-81
2023/04/04 04:02:27;;;;;;;6.25;2.25;;;-0.60;99.90;;;;;;5127285;27;20486;-80
2023/04/04 04:04:52;;;;;;;7.90;2.63;;;-0.60;99.90;;;;;;5091239;28;20047;-80
2023/04/04 04:07:21;;;;;;;5.45;2.15;;;-0.60;99.90;;;;;;5108100;27;20047;-80
2023/04/04 04:09:47;;;;;;;3.67;2.25;;;0.70;99.90;;;;;;5127268;27;20049;-80
2023/04/04 04:12:13;;;;;;;7.13;2.22;;;-0.60;99.90;;;;;;5126182;27;20121;-80
2023/04/04 04:14:38;;;;;;;8.40;2.58;;;-0.50;99.90;;;;;;5108937;27;20046;-80
2023/04/04 04:17:04;;;;;;;5.43;2.05;;;-0.50;99.90;;;;;;5126538;28;20028;-81
2023/04/04 04:19:30;;;;;;;4.85;2.50;;;-0.50;99.90;;;;;;5127659;27;20078;-81
2023/04/04 04:21:56;;;;;;;7.63;2.88;;;-0.50;99.90;;;;;;5126788;27;20478;-81
2023/04/04 04:24:22;;;;;;;4.47;2.60;;;-0.50;99.90;;;;;;5126928;27;20054;-82
2023/04/04 04:26:47;;;;;;;5.97;2.80;;;-0.50;99.90;;;;;;5127116;27;20493;-82
2023/04/04 04:29:13;;;;;;;6.43;2.53;;;-0.40;99.90;;;;;;5126141;27;20537;-81
2023/04/04 04:31:39;;;;;;;4.70;2.75;;;0.50;99.90;;;;;;5127242;28;20061;-81
2023/04/04 04:34:08;;;;;;;6.25;2.08;;;-0.50;99.90;;;;;;5107654;28;20039;-81
2023/04/04 04:36:34;;;;;;;4.88;2.67;;;0.80;99.90;;;;;;5108634;28;20043;-82
2023/04/04 04:39:00;;;;;;;5.03;2.08;;;-0.50;99.90;;;;;;5126217;28;20192;-81
2023/04/04 04:41:28;;;;;;;6.63;2.83;;;-0.50;99.90;;;;;;5126712;28;20078;-81
2023/04/04 04:43:54;;;;;;;9.38;2.70;;;0.70;99.90;;;;;;5127096;28;20623;-81
2023/04/04 04:46:20;;;;;;;5.53;2.75;;;-0.50;99.90;;;;;;5107684;28;20100;-81
2023/04/04 04:48:45;;;;;;;4.82;2.05;;;-0.50;99.90;;;;;;5126977;28;20035;-81
2023/04/04 04:51:13;;;;;;;7.80;2.70;;;-0.50;99.90;;;;;;5126027;28;20039;-81
2023/04/04 04:53:39;;;;;;;8.63;2.47;;;-0.50;99.90;;;;;;5127015;28;20079;-81
2023/04/04 04:56:05;;;;;;;3.97;2.40;;;-0.50;99.90;;;;;;5126125;28;20124;-82
2023/04/04 04:58:32;;;;;;;7.10;2.42;;;-0.50;99.90;;;;;;5126186;28;20051;-82
2023/04/04 05:00:57;;;;;;;5.82;2.60;;;-0.70;99.90;;;;;;5107903;28;20124;-83
2023/04/04 05:03:23;;;;;;;5.13;3.15;;;-0.50;99.90;;;;;;5075803;27;20059;-81
2023/04/04 05:05:49;;;;;;;20.05;4.13;;;-0.50;99.90;;;;;;5112129;27;20079;-80
2023/04/04 05:08:18;;;;;;;7.57;3.45;;;-0.10;99.90;;;;;;5129912;27;20752;-81
2023/04/04 05:10:44;;;;;;;4.78;2.72;;;-0.50;99.90;;;;;;5112059;27;20043;-89
2023/04/04 05:13:09;;;;;;;5.82;2.72;;;0.50;99.90;;;;;;5094428;27;20039;-83
2023/04/04 05:15:41;;;;;;;7.80;2.97;;;-0.50;99.90;;;;;;5111288;27;20065;-81
2023/04/04 05:18:07;;;;;;;5.47;2.67;;;-0.40;99.90;;;;;;5130131;27;20051;-81
2023/04/04 05:20:33;;;;;;;6.18;2.65;;;-0.50;99.90;;;;;;5094155;27;20100;-79
2023/04/04 05:22:58;;;;;;;6.13;2.65;;;-0.40;99.90;;;;;;5130572;27;20067;-81
2023/04/04 05:25:25;;;;;;;6.53;2.90;;;-0.40;99.90;;;;;;5094056;27;20566;-81
2023/04/04 05:27:51;;;;;;;4.00;2.60;;;-0.30;99.90;;;;;;5095107;27;20057;-81
2023/04/04 05:30:17;;;;;;;5.53;2.53;;;-0.30;99.90;;;;;;5111276;27;20047;-80
2023/04/04 05:32:45;;;;;;;7.35;2.60;;;-0.20;99.90;;;;;;5130069;27;20494;-84
2023/04/04 05:35:12;;;;;;;5.35;2.97;;;-0.20;99.90;;;;;;5130223;27;20397;-85
2023/04/04 05:37:39;;;;;;;4.97;2.85;;;-0.10;99.90;;;;;;5110975;27;20245;-83
2023/04/04 05:40:06;;;;;;;5.50;2.60;;;-0.10;99.90;;;;;;5129696;27;20043;-83
2023/04/04 05:42:31;;;;;;;5.20;2.88;;;-0.10;99.90;;;;;;5110634;27;20040;-85
2023/04/04 05:44:57;;;;;;;5.50;2.33;;;0.00;99.90;;;;;;5094741;27;20129;-82
2023/04/04 05:47:23;;;;;;;7.00;2.95;;;0.00;99.90;;;;;;5129376;27;20050;-80
2023/04/04 05:49:49;;;;;;;5.82;1.95;;;0.10;99.90;;;;;;5111161;27;20047;-80
2023/04/04 05:52:15;;;;;;;5.82;3.08;;;0.10;99.90;;;;;;5129510;27;20043;-80
2023/04/04 05:54:41;;;;;;;7.68;3.22;;;0.10;99.90;;;;;;5129109;27;20058;-80
2023/04/04 05:57:07;;;;;;;6.00;2.38;;;1.60;99.90;;;;;;5111471;27;20043;-80
2023/04/04 05:59:33;;;;;;;5.72;2.55;;;0.10;99.90;;;;;;5093686;27;20047;-80
2023/04/04 06:01:58;;;;;;;21.88;4.32;;;0.10;99.90;;;;;;5110868;27;20058;-82
2023/04/04 06:04:24;;;;;;;8.60;3.00;;;0.20;99.90;;;;;;5093188;27;20479;-80
2023/04/04 06:06:50;;;;;;;4.68;2.55;;;0.20;99.90;;;;;;5129184;27;20043;-80
2023/04/04 06:09:16;;;;;;;9.15;2.60;;;0.30;99.90;;;;;;5093620;27;20082;-80
2023/04/04 06:11:42;;;;;;;8.45;2.45;;;0.30;99.90;;;;;;5093040;27;20079;-80
2023/04/04 06:14:07;;;;;;;7.47;2.90;;;0.40;99.90;;;;;;5128026;27;20040;-80
2023/04/04 06:16:34;;;;;;;4.32;2.50;;;0.50;99.90;;;;;;5092937;27;20133;-80
2023/04/04 06:19:00;;;;;;;7.40;3.50;;;1.90;99.90;;;;;;5110653;27;20062;-81
2023/04/04 06:21:25;;;;;;;7.18;3.10;;;0.80;99.90;;;;;;5093297;27;20090;-81
2023/04/04 06:23:51;;;;;;;6.18;2.80;;;0.80;99.90;;;;;;5110759;27;20553;-81
2023/04/04 06:26:17;;;;;;;6.60;3.15;;;1.00;99.90;;;;;;5128820;27;20039;-80
2023/04/04 06:28:49;;;;;;;7.43;2.45;;;1.10;99.90;;;;;;5128391;27;20039;-80
2023/04/04 06:31:16;;;;;;;5.93;2.67;;;1.20;99.90;;;;;;5128681;27;20051;-80
2023/04/04 06:33:42;;;;;;;5.90;2.53;;;1.30;99.90;;;;;;5128211;27;20100;-80
2023/04/04 06:36:07;;;;;;;8.65;2.38;;;2.40;99.90;;;;;;5129274;27;20447;-80
2023/04/04 06:38:33;;;;;;;4.75;2.47;;;1.50;99.90;;;;;;5109857;27;20292;-80
2023/04/04 06:40:58;;;;;;;6.40;2.55;;;3.00;99.90;;;;;;5128995;27;20184;-80
2023/04/04 06:43:24;;;;;;;7.13;2.60;;;1.70;99.90;;;;;;5128300;27;20062;-80
2023/04/04 06:45:51;;;;;;;6.95;2.15;;;3.00;99.90;;;;;;5109602;27;20078;-80
2023/04/04 06:48:16;;;;;;;4.22;2.17;;;1.80;99.90;;;;;;5128654;27;20050;-80
2023/04/04 06:50:42;;;;;;;7.60;2.40;;;2.00;99.90;;;;;;5127788;27;20043;-80
2023/04/04 06:53:08;;;;;;;5.82;2.20;;;2.10;99.90;;;;;;5128706;27;20043;-79
2023/04/04 06:55:34;;;;;;;5.88;1.77;;;2.60;99.90;;;;;;5128226;27;20082;-80
2023/04/04 06:58:00;;;;;;;8.55;2.60;;;3.60;99.90;;;;;;5128614;27;20131;-80
2023/04/04 07:00:25;;;;;;;5.90;2.22;;;3.70;99.90;;;;;;5109359;27;20054;-80
2023/04/04 07:02:58;;;;;;;6.68;2.15;;;2.60;99.90;;;;;;5127722;27;20295;-80
2023/04/04 07:05:24;;;;;;;5.25;1.65;;;2.70;99.90;;;;;;5128441;27;20044;-80
2023/04/04 07:07:53;;;;;;;3.88;1.90;;;4.00;99.90;;;;;;5127244;27;20039;-79
2023/04/04 07:10:20;;;;;;;6.50;1.83;;;3.40;99.90;;;;;;5109757;27;20039;-80
2023/04/04 07:12:46;;;;;;;8.70;1.90;;;3.10;99.90;;;;;;5127251;27;20482;-81
2023/04/04 07:15:12;;;;;;;3.88;1.60;;;3.20;99.90;;;;;;5109743;27;20050;-80
2023/04/04 07:17:39;;;;;;;6.25;1.05;;;3.30;99.90;;;;;;5127562;27;20493;-80
2023/04/04 07:20:06;;;;;;;4.50;1.55;;;3.50;99.90;;;;;;5127454;27;20075;-80
2023/04/04 07:22:32;;;;;;;5.78;1.42;;;3.60;99.90;;;;;;5127806;27;20498;-80
2023/04/04 07:24:57;;;;;;;2.97;1.10;;;4.40;99.90;;;;;;5108836;27;20078;-82
2023/04/04 07:27:23;;;;;;;5.28;1.70;;;3.80;99.90;;;;;;5128073;27;20072;-82
2023/04/04 07:29:49;;;;;;;4.65;1.40;;;4.70;99.90;;;;;;5127422;27;20043;-80
2023/04/04 07:32:15;;;;;;;5.47;1.33;;;4.00;99.90;;;;;;5109271;27;20545;-80
2023/04/04 07:34:41;;;;;;;2.67;1.60;;;4.20;99.90;;;;;;5109227;27;20126;-80
2023/04/04 07:37:07;;;;;;;4.20;1.15;;;5.10;99.90;;;;;;5127327;27;20083;-80
2023/04/04 07:39:33;;;;;;;5.85;2.05;;;4.30;99.90;;;;;;5127432;27;20082;-80
2023/04/04 07:41:58;;;;;;;1.85;1.13;;;3.60;99.90;;;;;;5126853;27;20039;-79
2023/04/04 07:44:24;;;;;;;6.13;1.85;;;4.50;99.90;;;;;;5091887;27;20054;-81
2023/04/04 07:46:50;;;;;;;5.25;1.27;;;4.60;99.90;;;;;;5091528;27;20080;-81
2023/04/04 07:49:15;;;;;;;5.15;1.40;;;4.70;99.90;;;;;;5127788;27;20059;-82
2023/04/04 07:51:41;;;;;;;6.90;1.73;;;3.80;99.90;;;;;;5126906;27;20039;-81
2023/04/04 07:54:07;;;;;;;3.17;0.95;;;5.70;99.90;;;;;;5108437;27;20112;-80
2023/04/04 07:56:33;;;;;;;4.03;1.17;;;5.00;99.90;;;;;;5108787;27;20108;-80
2023/04/04 07:58:59;;;;;;;2.53;0.90;;;5.10;99.90;;;;;;5107918;27;20100;-80
2023/04/04 08:01:25;;;;;;;3.55;1.33;;;5.20;99.90;;;;;;5109108;27;20035;-81
2023/04/04 08:03:52;;;;;;;9.77;1.70;;;5.40;99.90;;;;;;5125519;27;20054;-81
2023/04/04 08:06:18;;;;;;;3.58;1.08;;;5.50;99.90;;;;;;5090693;27;20100;-82
2023/04/04 08:08:45;;;;;;;2.70;1.30;;;5.60;99.90;;;;;;5073363;27;20526;-80
2023/04/04 08:11:12;;;;;;;4.93;1.27;;;6.70;99.90;;;;;;5107838;27;20094;-80
2023/04/04 08:13:38;;;;;;;2.15;1.27;;;6.20;99.90;;;;;;5107000;27;20095;-81
2023/04/04 08:16:04;;;;;;;6.45;1.48;;;5.90;99.90;;;;;;5106765;27;20043;-83
2023/04/04 08:18:31;;;;;;;3.70;1.88;;;6.00;99.90;;;;;;5107238;27;20051;-83
2023/04/04 08:20:57;;;;;;;2.00;1.10;;;6.10;99.90;;;;;;5106870;27;20055;-83
2023/04/04 08:23:22;;;;;;;6.05;2.17;;;6.20;99.90;;;;;;5107442;27;20056;-82
2023/04/04 08:25:48;;;;;;;5.60;1.20;;;6.30;99.90;;;;;;5073612;27;20120;-80
2023/04/04 08:28:14;;;;;;;5.47;1.77;;;6.50;99.90;;;;;;5107738;27;20047;-80
2023/04/04 08:30:40;;;;;;;5.05;1.15;;;6.60;99.90;;;;;;5107144;28;20485;-80
2023/04/04 08:33:06;;;;;;;4.90;1.15;;;6.60;99.90;;;;;;5107145;28;20047;-80
2023/04/04 08:35:32;;;;;;;11.93;1.33;;;7.60;99.90;;;;;;5106976;28;20103;-81
2023/04/04 08:37:57;;;;;;;4.22;1.00;;;7.80;99.90;;;;;;5108568;27;20048;-80
2023/04/04 08:40:23;;;;;;;3.40;1.00;;;7.70;99.90;;;;;;5077783;27;20043;-79
2023/04/04 08:42:50;;;;;;;11.45;3.10;;;7.10;99.90;;;;;;5111494;27;20035;-79
2023/04/04 08:45:20;;;;;;;8.48;1.80;;;7.30;99.90;;;;;;5094621;27;20084;-79
2023/04/04 08:47:49;;;;;;;6.55;1.60;;;8.50;99.90;;;;;;5111039;27;20039;-80
2023/04/04 08:50:15;;;;;;;2.50;1.08;;;7.80;99.90;;;;;;5110909;27;20075;-79
2023/04/04 08:52:42;;;;;;;4.32;0.85;;;8.00;99.90;;;;;;5129550;27;20066;-79
2023/04/04 08:55:08;;;;;;;6.03;1.40;;;7.70;99.90;;;;;;5111185;27;20135;-86
2023/04/04 08:57:34;;;;;;;4.05;0.95;;;7.80;99.90;;;;;;5130118;27;20807;-83
2023/04/04 09:00:04;;;;;;;5.10;1.05;;;8.20;99.90;;;;;;5110554;27;20039;-86
2023/04/04 09:02:47;;;;;;;6.72;1.10;;;8.00;99.90;;;;;;5091281;28;20055;-79
2023/04/04 09:05:14;;;;;;;3.38;1.10;;;8.10;99.90;;;;;;5107546;28;20063;-79
2023/04/04 09:07:41;;;;;;;3.55;1.08;;;8.80;99.90;;;;;;5108071;27;20119;-80
2023/04/04 09:10:10;;;;;;;4.80;1.63;;;8.20;99.90;;;;;;5107783;28;20047;-81
2023/04/04 09:12:43;;;;;;;4.30;1.10;;;8.40;99.90;;;;;;5107777;27;20051;-80
2023/04/04 09:15:09;;;;;;;5.60;1.10;;;8.50;99.90;;;;;;5107073;28;20122;-80
2023/04/04 09:17:36;;;;;;;5.20;1.10;;;8.50;99.90;;;;;;5107573;28;20324;-80
2023/04/04 09:20:03;;;;;;;6.57;1.25;;;8.70;99.50;;;;;;5106525;28;20112;-80
2023/04/04 09:22:29;;;;;;;3.38;1.30;;;8.80;99.20;;;;;;5107432;28;20047;-80
2023/04/04 09:24:55;;;;;;;3.53;1.17;;;8.90;98.50;;;;;;5107386;28;20391;-80
2023/04/04 09:27:21;;;;;;;5.15;1.40;;;10.00;98.10;;;;;;5105847;28;20097;-80
2023/04/04 09:29:47;;;;;;;2.33;0.90;;;9.20;97.10;;;;;;5106374;28;20039;-80
2023/04/04 09:32:14;;;;;;;3.30;1.40;;;9.40;96.40;;;;;;5106261;28;20044;-80
2023/04/04 09:34:40;;;;;;;2.15;0.77;;;9.40;96.30;;;;;;5105362;28;20048;-80
2023/04/04 09:37:06;;;;;;;3.65;1.38;;;9.50;95.70;;;;;;5105808;28;20525;-80
2023/04/04 09:39:33;;;;;;;6.80;1.35;;;9.70;95.10;;;;;;5105453;28;20040;-80
2023/04/04 09:41:59;;;;;;;6.15;1.17;;;9.70;93.60;;;;;;5107681;28;20038;-81
2023/04/04 09:44:28;;;;;;;3.65;0.93;;;9.70;93.20;;;;;;5106814;28;20036;-80
2023/04/04 09:47:24;;;;;;;5.25;1.20;;;9.80;93.40;;;;;;5105862;28;20058;-80
2023/04/04 09:49:51;;;;;;;3.10;1.33;;;9.90;92.60;;;;;;5107396;27;20039;-80
2023/04/04 09:52:20;;;;;;;6.38;2.05;;;9.90;92.30;;;;;;5104897;28;20048;-79
2023/04/04 09:54:57;;;;;;;6.07;1.40;;;10.10;92.20;;;;;;5105238;28;20558;-79
2023/04/04 09:57:24;;;;;;;4.25;1.48;;;10.30;92.10;;;;;;5105483;28;20058;-80
2023/04/04 09:59:50;;;;;;;4.78;1.42;;;10.40;91.30;;;;;;5106929;27;20066;-79
2023/04/04 10:02:16;;;;;;;8.85;2.03;;;10.60;90.80;;;;;;5112613;27;20498;-81
2023/04/04 10:04:42;;;;;;;3.13;1.17;;;11.00;90.10;;;;;;5126879;27;20056;-80
2023/04/04 10:07:15;;;;;;;6.53;1.50;;;10.70;87.80;;;;;;5126966;27;20046;-80
2023/04/04 10:09:41;;;;;;;;;;;10.70;86.60;;;;;;5092295;27;20537;-81
2023/04/04 10:12:08;;;;;;;5.68;1.20;;;10.80;84.70;;;;;;5108198;27;19919;-80
2023/04/04 10:14:35;;;;;;;6.15;2.03;;;10.80;88.50;;;;;;5091305;27;20099;-80
2023/04/04 10:17:12;;;;;;;4.57;1.42;;;10.90;87.30;;;;;;5108763;27;20076;-79
2023/04/04 10:19:39;;;;;;;4.53;1.42;;;10.90;85.60;;;;;;5075409;27;20050;-79
2023/04/04 10:22:05;;;;;;;3.05;1.05;;;10.90;85.90;;;;;;5107594;27;20134;-80
2023/04/04 10:24:31;;;;;;;10.30;2.67;;;11.00;86.00;;;;;;5127295;27;20172;-79
2023/04/04 10:26:57;;;;;;;5.07;1.67;;;10.90;85.90;;;;;;5108121;27;20505;-80
2023/04/04 10:29:23;;;;;;;3.13;1.17;;;11.30;86.10;;;;;;5108231;27;20047;-80
2023/04/04 10:31:57;;;;;;;3.63;1.65;;;11.20;84.90;;;;;;5108354;27;20117;-80
2023/04/04 10:34:40;;;;;;;5.88;1.58;;;11.30;83.90;;;;;;5107896;27;20114;-80
2023/04/04 10:37:15;;;;;;;;;;;11.40;83.90;;;;;;5109502;27;20047;-80
2023/04/04 10:39:52;;;;;;;7.03;1.70;;;11.40;83.20;;;;;;5107689;27;19967;-80
2023/04/04 10:42:18;;;;;;;5.10;1.27;;;11.30;84.40;;;;;;5108385;27;20662;-80
2023/04/04 10:44:45;;;;;;;4.65;1.70;;;11.20;82.60;;;;;;5108454;27;20154;-80
2023/04/04 10:47:21;;;;;;;6.00;1.85;;;11.20;82.50;;;;;;5091091;27;20047;-80
2023/04/04 10:49:50;;;;;;;2.83;1.45;;;11.30;83.40;;;;;;5091759;27;20608;-80
2023/04/04 10:52:19;;;;;;;4.10;1.42;;;11.40;81.60;;;;;;5107118;27;20042;-81
2023/04/04 10:54:48;;;;;;;5.78;1.55;;;11.30;80.30;;;;;;5107566;27;20056;-81
2023/04/04 10:57:15;;;;;;;4.00;1.70;;;11.40;80.60;;;;;;5107678;27;20050;-81
2023/04/04 11:00:00;;;;;;;5.50;1.90;;;11.50;80.50;;;;;;5090415;27;20047;-80
2023/04/04 11:02:51;;;;;;;4.47;1.67;;;11.50;78.20;;;;;;5107880;27;20055;-81
2023/04/04 11:05:36;;;;;;;7.10;1.50;;;11.50;76.30;;;;;;5107472;27;20087;-80
2023/04/04 11:08:06;;;;;;;4.03;1.50;;;11.50;77.20;;;;;;5108154;27;20051;-80
2023/04/04 11:10:43;;;;;;;7.28;1.55;;;11.50;76.60;;;;;;5107571;27;20053;-80
2023/04/04 11:13:24;;;;;;;5.25;1.08;;;11.60;76.30;;;;;;5107461;27;20423;-80
2023/04/04 11:15:57;;;;;;;9.98;1.45;;;11.80;76.50;;;;;;5108006;27;20122;-80
2023/04/04 11:18:37;;;;;;;4.15;1.40;;;11.90;75.70;;;;;;5107166;27;20493;-80
2023/04/04 11:21:06;;;;;;;7.00;1.35;;;12.00;76.00;;;;;;5107226;27;20062;-80
2023/04/04 11:23:58;;;;;;;4.05;1.15;;;11.90;74.20;;;;;;5107987;27;20078;-80
2023/04/04 11:26:27;;;;;;;4.03;1.23;;;11.90;72.40;;;;;;5076610;27;20566;-80
2023/04/04 11:28:57;;;;;;;5.30;1.30;;;11.90;73.10;;;;;;5107761;27;20159;-80
2023/04/04 11:31:26;;;;;;;4.50;1.73;;;11.90;71.50;;;;;;5106760;27;20094;-80
2023/04/04 11:34:11;;;;;;;4.47;1.20;;;12.00;71.70;;;;;;5107020;27;20079;-80
2023/04/04 11:36:37;;;;;;;4.30;1.33;;;12.20;71.10;;;;;;5107450;27;20055;-80
2023/04/04 11:39:04;;;;;;;3.90;1.30;;;12.20;70.20;;;;;;5089324;27;20051;-80
2023/04/04 11:42:03;;;;;;;4.75;1.30;;;12.20;69.70;;;;;;5106919;27;20054;-80
2023/04/04 11:44:32;;;;;;;3.75;1.42;;;12.30;68.50;;;;;;5107222;27;20068;-81
2023/04/04 11:47:05;;;;;;;2.45;1.02;;;12.40;70.30;;;;;;5090166;27;20504;-80
2023/04/04 11:49:35;;;;;;;;;;;12.60;69.80;;;;;;5107245;27;20053;-80
2023/04/04 11:52:05;;;;;;;3.40;1.10;;;12.80;67.20;;;;;;5124771;27;19919;-79
2023/04/04 11:54:31;;;;;;;6.18;1.50;;;12.90;68.90;;;;;;5106613;27;20075;-79
2023/04/04 11:56:57;;;;;;;8.85;1.23;;;12.90;67.60;;;;;;5106366;27;20721;-80
2023/04/04 11:59:23;;;;;;;3.53;1.38;;;12.80;66.90;;;;;;5106411;28;20051;-80
2023/04/04 12:01:49;;;;;;;4.95;1.80;;;12.70;66.40;;;;;;5106483;27;20070;-80
2023/04/04 12:04:19;;;;;;;6.43;1.52;;;12.70;65.80;;;;;;5106303;27;20055;-80
2023/04/04 12:06:53;;;;;;;2.10;1.23;;;12.80;64.90;;;;;;5090675;27;20135;-80
2023/04/04 12:09:19;;;;;;;5.78;1.48;;;12.80;63.10;;;;;;5089106;27;20088;-80
2023/04/04 12:11:47;;;;;;;5.18;1.88;;;12.70;63.60;;;;;;5106316;28;20431;-80
2023/04/04 12:14:20;;;;;;;5.03;1.77;;;12.70;63.50;;;;;;5124423;27;20047;-80
2023/04/04 12:16:48;;;;;;;4.15;1.42;;;12.70;62.60;;;;;;5106213;27;20055;-80
2023/04/04 12:19:14;;;;;;;3.03;1.35;;;12.60;62.90;;;;;;5106963;28;20039;-80
2023/04/04 12:21:40;;;;;;;6.28;1.85;;;12.60;63.60;;;;;;5106254;27;20035;-80
2023/04/04 12:24:07;;;;;;;3.90;1.80;;;12.70;64.00;;;;;;5089611;27;20047;-80
2023/04/04 12:26:36;;;;;;;4.75;1.55;;;12.90;63.90;;;;;;5105732;28;20540;-80
2023/04/04 12:29:02;;;;;;;3.75;1.65;;;12.90;63.40;;;;;;5106156;28;20924;-79
2023/04/04 12:31:29;;;;;;;6.18;1.90;;;13.10;63.80;;;;;;5073151;28;20122;-80
2023/04/04 12:33:55;;;;;;;2.67;1.33;;;13.30;63.70;;;;;;5106381;28;20521;-80
2023/04/04 12:36:36;;;;;;;6.38;1.90;;;13.40;62.90;;;;;;5106476;28;20090;-80
2023/04/04 12:39:07;;;;;;;3.88;1.45;;;13.40;62.60;;;;;;5105396;28;20551;-80
2023/04/04 12:41:34;;;;;;;4.93;1.30;;;13.20;60.40;;;;;;5124895;28;20333;-79
2023/04/04 12:44:03;;;;;;;4.75;1.50;;;13.10;62.00;;;;;;5106013;28;20058;-80
2023/04/04 12:46:39;;;;;;;4.47;1.40;;;13.10;61.70;;;;;;5106176;28;20506;-80
2023/04/04 12:49:07;;;;;;;5.80;1.60;;;12.90;61.30;;;;;;5124855;28;20039;-79
2023/04/04 12:51:34;;;;;;;5.15;2.58;;;12.90;61.80;;;;;;5088804;28;20135;-80
2023/04/04 12:54:00;;;;;;;3.83;1.50;;;12.90;61.50;;;;;;5106182;28;20547;-80
2023/04/04 12:56:27;;;;;;;8.38;1.42;;;12.90;61.40;;;;;;5088848;28;20039;-79